sensor_id;sensor_type;location;lat;lon;timestamp;P1;durP1;ratioP1;P2;durP2;ratioP2
73296;SDS011;61524;50.938;11.396;2024-01-06T00:00:31;1999.90;;;999.90;;
73296;SDS011;61524;50.938;11.396;2024-01-06T00:02:56;1999.90;;;999.90;;
73296;SDS011;61524;50.938;11.396;2024-01-06T00:05:21;1999.90;;;999.90;;
73296;SDS011;61524;50.938;11.396;2024-01-06T00:07:47;1999.90;;;999.90;;
73296;SDS011;61524;50.938;11.396;2024-01-06T00:10:12;1999.90;;;999.90;;
73296;SDS011;61524;50.938;11.396;2024-01-06T00:12:37;1999.90;;;999.90;;
73296;SDS011;61524;50.938;11.396;2024-01-06T00:15:03;1999.90;;;999.90;;
73296;SDS011;61524;50.938;11.396;2024-01-06T00:17:28;1999.90;;;999.90;;
73296;SDS011;61524;50.938;11.396;2024-01-06T00:19:53;1999.90;;;999.90;;
73296;SDS011;61524;50.938;11.396;2024-01-06T00:22:20;1999.90;;;999.90;;
73296;SDS011;61524;50.938;11.396;2024-01-06T00:24:45;1999.90;;;999.90;;
73296;SDS011;61524;50.938;11.396;2024-01-06T00:27:10;1999.90;;;999.90;;
73296;SDS011;61524;50.938;11.396;2024-01-06T00:29:36;1999.90;;;999.90;;
73296;SDS011;61524;50.938;11.396;2024-01-06T00:32:01;1999.90;;;999.90;;
73296;SDS011;61524;50.938;11.396;2024-01-06T00:34:26;1999.90;;;999.90;;
73296;SDS011;61524;50.938;11.396;2024-01-06T00:36:52;1999.90;;;999.90;;
73296;SDS011;61524;50.938;11.396;2024-01-06T00:39:17;1999.90;;;999.90;;
73296;SDS011;61524;50.938;11.396;2024-01-06T00:41:43;1999.90;;;999.90;;
73296;SDS011;61524;50.938;11.396;2024-01-06T00:44:08;1999.90;;;999.90;;
73296;SDS011;61524;50.938;11.396;2024-01-06T00:46:34;1999.90;;;999.90;;
73296;SDS011;61524;50.938;11.396;2024-01-06T00:48:59;1999.90;;;999.90;;
73296;SDS011;61524;50.938;11.396;2024-01-06T00:51:24;1999.90;;;999.90;;
73296;SDS011;61524;50.938;11.396;2024-01-06T00:53:50;1999.90;;;999.90;;
73296;SDS011;61524;50.938;11.396;2024-01-06T00:56:15;1999.90;;;999.90;;
73296;SDS011;61524;50.938;11.396;2024-01-06T00:58:40;1999.90;;;999.90;;
73296;SDS011;61524;50.938;11.396;2024-01-06T01:01:06;1999.90;;;999.90;;
73296;SDS011;61524;50.938;11.396;2024-01-06T01:03:31;1999.90;;;999.90;;
73296;SDS011;61524;50.938;11.396;2024-01-06T01:05:56;1999.90;;;999.90;;
73296;SDS011;61524;50.938;11.396;2024-01-06T01:08:21;1999.90;;;999.90;;
73296;SDS011;61524;50.938;11.396;2024-01-06T01:10:47;1999.90;;;999.90;;
73296;SDS011;61524;50.938;11.396;2024-01-06T01:13:12;1999.90;;;999.90;;
73296;SDS011;61524;50.938;11.396;2024-01-06T01:15:37;1999.90;;;999.90;;
73296;SDS011;61524;50.938;11.396;2024-01-06T01:18:03;1999.90;;;999.90;;
73296;SDS011;61524;50.938;11.396;2024-01-06T01:20:28;1999.90;;;999.90;;
73296;SDS011;61524;50.938;11.396;2024-01-06T01:22:53;1999.90;;;999.90;;
73296;SDS011;61524;50.938;11.396;2024-01-06T01:25:19;1999.90;;;999.90;;
73296;SDS011;61524;50.938;11.396;2024-01-06T01:27:44;1999.90;;;999.90;;
73296;SDS011;61524;50.938;11.396;2024-01-06T01:30:09;1999.90;;;999.90;;
73296;SDS011;61524;50.938;11.396;2024-01-06T01:32:35;1999.90;;;999.90;;
73296;SDS011;61524;50.938;11.396;2024-01-06T01:35:00;1999.90;;;999.90;;
73296;SDS011;61524;50.938;11.396;2024-01-06T01:37:25;1999.90;;;999.90;;
73296;SDS011;61524;50.938;11.396;2024-01-06T01:39:50;1999.90;;;999.90;;
73296;SDS011;61524;50.938;11.396;2024-01-06T01:42:16;1999.90;;;999.90;;
73296;SDS011;61524;50.938;11.396;2024-01-06T01:44:41;1999.90;;;999.90;;
73296;SDS011;61524;50.938;11.396;2024-01-06T01:47:06;1999.90;;;999.90;;
73296;SDS011;61524;50.938;11.396;2024-01-06T01:49:32;1999.90;;;999.90;;
73296;SDS011;61524;50.938;11.396;2024-01-06T01:51:57;1999.90;;;999.90;;
73296;SDS011;61524;50.938;11.396;2024-01-06T01:54:23;1999.90;;;999.90;;
73296;SDS011;61524;50.938;11.396;2024-01-06T01:56:48;1999.90;;;999.90;;
73296;SDS011;61524;50.938;11.396;2024-01-06T01:59:14;1999.90;;;999.90;;
73296;SDS011;61524;50.938;11.396;2024-01-06T02:01:42;1999.90;;;999.90;;
73296;SDS011;61524;50.938;11.396;2024-01-06T02:04:08;1999.90;;;999.90;;
73296;SDS011;61524;50.938;11.396;2024-01-06T02:06:33;1999.90;;;999.90;;
73296;SDS011;61524;50.938;11.396;2024-01-06T02:08:59;1999.90;;;999.90;;
73296;SDS011;61524;50.938;11.396;2024-01-06T02:11:24;1999.90;;;999.90;;
73296;SDS011;61524;50.938;11.396;2024-01-06T02:13:49;1999.90;;;999.90;;
73296;SDS011;61524;50.938;11.396;2024-01-06T02:16:15;1999.90;;;999.90;;
73296;SDS011;61524;50.938;11.396;2024-01-06T02:18:40;1999.90;;;999.90;;
73296;SDS011;61524;50.938;11.396;2024-01-06T02:21:05;1999.90;;;999.90;;
73296;SDS011;61524;50.938;11.396;2024-01-06T02:23:33;1999.90;;;999.90;;
73296;SDS011;61524;50.938;11.396;2024-01-06T02:25:59;1999.90;;;999.90;;
73296;SDS011;61524;50.938;11.396;2024-01-06T02:28:24;1999.90;;;999.90;;
73296;SDS011;61524;50.938;11.396;2024-01-06T02:30:49;1999.90;;;999.90;;
73296;SDS011;61524;50.938;11.396;2024-01-06T02:33:15;1999.90;;;999.90;;
73296;SDS011;61524;50.938;11.396;2024-01-06T02:35:40;1999.90;;;999.90;;
73296;SDS011;61524;50.938;11.396;2024-01-06T02:38:06;1999.90;;;999.90;;
73296;SDS011;61524;50.938;11.396;2024-01-06T02:40:31;1999.90;;;999.90;;
73296;SDS011;61524;50.938;11.396;2024-01-06T02:42:57;1999.90;;;999.90;;
73296;SDS011;61524;50.938;11.396;2024-01-06T02:45:23;1999.90;;;999.90;;
73296;SDS011;61524;50.938;11.396;2024-01-06T02:47:48;1999.90;;;999.90;;
73296;SDS011;61524;50.938;11.396;2024-01-06T02:50:13;1999.90;;;999.90;;
73296;SDS011;61524;50.938;11.396;2024-01-06T02:52:39;1999.90;;;999.90;;
73296;SDS011;61524;50.938;11.396;2024-01-06T02:55:04;1999.90;;;999.90;;
73296;SDS011;61524;50.938;11.396;2024-01-06T02:57:30;1999.90;;;999.90;;
73296;SDS011;61524;50.938;11.396;2024-01-06T02:59:55;1999.90;;;999.90;;
73296;SDS011;61524;50.938;11.396;2024-01-06T03:02:20;1999.90;;;999.90;;
73296;SDS011;61524;50.938;11.396;2024-01-06T03:04:45;1999.90;;;999.90;;
73296;SDS011;61524;50.938;11.396;2024-01-06T03:07:11;1999.90;;;999.90;;
73296;SDS011;61524;50.938;11.396;2024-01-06T03:09:36;1999.90;;;999.90;;
73296;SDS011;61524;50.938;11.396;2024-01-06T03:12:04;1999.90;;;999.90;;
73296;SDS011;61524;50.938;11.396;2024-01-06T03:14:30;1999.90;;;999.90;;
73296;SDS011;61524;50.938;11.396;2024-01-06T03:16:55;1999.90;;;999.90;;
73296;SDS011;61524;50.938;11.396;2024-01-06T03:19:22;1999.90;;;999.90;;
73296;SDS011;61524;50.938;11.396;2024-01-06T03:21:51;1999.90;;;999.90;;
73296;SDS011;61524;50.938;11.396;2024-01-06T03:24:16;1999.90;;;999.90;;
73296;SDS011;61524;50.938;11.396;2024-01-06T03:26:41;1999.90;;;999.90;;
73296;SDS011;61524;50.938;11.396;2024-01-06T03:29:07;1999.90;;;999.90;;
73296;SDS011;61524;50.938;11.396;2024-01-06T03:31:32;1999.90;;;999.90;;
73296;SDS011;61524;50.938;11.396;2024-01-06T03:33:57;1999.90;;;999.90;;
73296;SDS011;61524;50.938;11.396;2024-01-06T03:36:23;1999.90;;;999.90;;
73296;SDS011;61524;50.938;11.396;2024-01-06T03:38:48;1999.90;;;999.90;;
73296;SDS011;61524;50.938;11.396;2024-01-06T03:41:13;1999.90;;;999.90;;
73296;SDS011;61524;50.938;11.396;2024-01-06T03:43:39;1999.90;;;999.90;;
73296;SDS011;61524;50.938;11.396;2024-01-06T03:46:04;1999.90;;;999.90;;
73296;SDS011;61524;50.938;11.396;2024-01-06T03:48:30;1999.90;;;999.90;;
73296;SDS011;61524;50.938;11.396;2024-01-06T03:50:56;1999.90;;;999.90;;
73296;SDS011;61524;50.938;11.396;2024-01-06T03:53:22;1999.90;;;999.90;;
73296;SDS011;61524;50.938;11.396;2024-01-06T03:55:47;1999.90;;;999.90;;
73296;SDS011;61524;50.938;11.396;2024-01-06T03:58:12;1999.90;;;999.90;;
73296;SDS011;61524;50.938;11.396;2024-01-06T04:00:38;1999.90;;;999.90;;
73296;SDS011;61524;50.938;11.396;2024-01-06T04:03:03;1999.90;;;999.90;;
73296;SDS011;61524;50.938;11.396;2024-01-06T04:05:29;1999.90;;;999.90;;
73296;SDS011;61524;50.938;11.396;2024-01-06T04:07:54;1999.90;;;999.90;;
73296;SDS011;61524;50.938;11.396;2024-01-06T04:10:20;1999.90;;;999.90;;
73296;SDS011;61524;50.938;11.396;2024-01-06T04:12:45;1999.90;;;999.90;;
73296;SDS011;61524;50.938;11.396;2024-01-06T04:15:10;1999.90;;;999.90;;
73296;SDS011;61524;50.938;11.396;2024-01-06T04:17:36;1999.90;;;999.90;;
73296;SDS011;61524;50.938;11.396;2024-01-06T04:20:01;1999.90;;;999.90;;
73296;SDS011;61524;50.938;11.396;2024-01-06T04:22:26;1999.90;;;999.90;;
73296;SDS011;61524;50.938;11.396;2024-01-06T04:24:51;1999.90;;;999.90;;
73296;SDS011;61524;50.938;11.396;2024-01-06T04:27:17;1999.90;;;999.90;;
73296;SDS011;61524;50.938;11.396;2024-01-06T04:29:42;1999.90;;;999.90;;
73296;SDS011;61524;50.938;11.396;2024-01-06T04:32:07;1999.90;;;999.90;;
73296;SDS011;61524;50.938;11.396;2024-01-06T04:34:33;1999.90;;;999.90;;
73296;SDS011;61524;50.938;11.396;2024-01-06T04:36:58;1999.90;;;999.90;;
73296;SDS011;61524;50.938;11.396;2024-01-06T04:39:23;1999.90;;;999.90;;
73296;SDS011;61524;50.938;11.396;2024-01-06T04:41:49;1999.90;;;999.90;;
73296;SDS011;61524;50.938;11.396;2024-01-06T04:44:14;1999.90;;;999.90;;
73296;SDS011;61524;50.938;11.396;2024-01-06T04:46:39;1999.90;;;999.90;;
73296;SDS011;61524;50.938;11.396;2024-01-06T04:49:04;1999.90;;;999.90;;
73296;SDS011;61524;50.938;11.396;2024-01-06T04:51:30;1999.90;;;999.90;;
73296;SDS011;61524;50.938;11.396;2024-01-06T04:53:55;1999.90;;;999.90;;
73296;SDS011;61524;50.938;11.396;2024-01-06T04:56:20;1999.90;;;999.90;;
73296;SDS011;61524;50.938;11.396;2024-01-06T04:58:46;1999.90;;;999.90;;
73296;SDS011;61524;50.938;11.396;2024-01-06T05:01:11;1999.90;;;999.90;;
73296;SDS011;61524;50.938;11.396;2024-01-06T05:03:37;1999.90;;;999.90;;
73296;SDS011;61524;50.938;11.396;2024-01-06T05:06:02;1999.90;;;999.90;;
73296;SDS011;61524;50.938;11.396;2024-01-06T05:08:27;1999.90;;;999.90;;
73296;SDS011;61524;50.938;11.396;2024-01-06T05:10:55;1999.90;;;999.90;;
73296;SDS011;61524;50.938;11.396;2024-01-06T05:13:20;1999.90;;;999.90;;
73296;SDS011;61524;50.938;11.396;2024-01-06T05:15:46;1999.90;;;999.90;;
73296;SDS011;61524;50.938;11.396;2024-01-06T05:18:11;1999.90;;;999.90;;
73296;SDS011;61524;50.938;11.396;2024-01-06T05:20:36;1999.90;;;999.90;;
73296;SDS011;61524;50.938;11.396;2024-01-06T05:23:01;1999.90;;;999.90;;
73296;SDS011;61524;50.938;11.396;2024-01-06T05:25:27;1999.90;;;999.90;;
73296;SDS011;61524;50.938;11.396;2024-01-06T05:27:52;1999.90;;;999.90;;
73296;SDS011;61524;50.938;11.396;2024-01-06T05:30:17;1999.90;;;999.90;;
73296;SDS011;61524;50.938;11.396;2024-01-06T05:32:43;1999.90;;;999.90;;
73296;SDS011;61524;50.938;11.396;2024-01-06T05:35:08;1999.90;;;999.90;;
73296;SDS011;61524;50.938;11.396;2024-01-06T05:37:34;1999.90;;;999.90;;
73296;SDS011;61524;50.938;11.396;2024-01-06T05:39:59;1999.90;;;999.90;;
73296;SDS011;61524;50.938;11.396;2024-01-06T05:42:27;1999.90;;;999.90;;
73296;SDS011;61524;50.938;11.396;2024-01-06T05:44:53;1999.90;;;999.90;;
73296;SDS011;61524;50.938;11.396;2024-01-06T05:47:19;1999.90;;;999.90;;
73296;SDS011;61524;50.938;11.396;2024-01-06T05:49:44;1999.90;;;999.90;;
73296;SDS011;61524;50.938;11.396;2024-01-06T05:52:10;1999.90;;;999.90;;
73296;SDS011;61524;50.938;11.396;2024-01-06T05:54:35;1999.90;;;999.90;;
73296;SDS011;61524;50.938;11.396;2024-01-06T05:57:00;1999.90;;;999.90;;
73296;SDS011;61524;50.938;11.396;2024-01-06T05:59:26;1999.90;;;999.90;;
73296;SDS011;61524;50.938;11.396;2024-01-06T06:01:51;1999.90;;;999.90;;
73296;SDS011;61524;50.938;11.396;2024-01-06T06:04:17;1999.90;;;999.90;;
73296;SDS011;61524;50.938;11.396;2024-01-06T06:06:44;1999.90;;;999.90;;
73296;SDS011;61524;50.938;11.396;2024-01-06T06:09:09;1999.90;;;999.90;;
73296;SDS011;61524;50.938;11.396;2024-01-06T06:11:35;1999.90;;;999.90;;
73296;SDS011;61524;50.938;11.396;2024-01-06T06:14:00;1999.90;;;999.90;;
73296;SDS011;61524;50.938;11.396;2024-01-06T06:16:27;1999.90;;;999.90;;
73296;SDS011;61524;50.938;11.396;2024-01-06T06:18:53;1999.90;;;999.90;;
73296;SDS011;61524;50.938;11.396;2024-01-06T06:21:18;1999.90;;;999.90;;
73296;SDS011;61524;50.938;11.396;2024-01-06T06:23:43;1999.90;;;999.90;;
73296;SDS011;61524;50.938;11.396;2024-01-06T06:26:09;1999.90;;;999.90;;
73296;SDS011;61524;50.938;11.396;2024-01-06T06:28:34;1999.90;;;999.90;;
73296;SDS011;61524;50.938;11.396;2024-01-06T06:31:01;1999.90;;;999.90;;
73296;SDS011;61524;50.938;11.396;2024-01-06T06:33:26;1999.90;;;999.90;;
73296;SDS011;61524;50.938;11.396;2024-01-06T06:35:51;1999.90;;;999.90;;
73296;SDS011;61524;50.938;11.396;2024-01-06T06:38:17;1999.90;;;999.90;;
73296;SDS011;61524;50.938;11.396;2024-01-06T06:40:42;1999.90;;;999.90;;
73296;SDS011;61524;50.938;11.396;2024-01-06T06:43:07;1999.90;;;999.90;;
73296;SDS011;61524;50.938;11.396;2024-01-06T06:45:33;1999.90;;;999.90;;
73296;SDS011;61524;50.938;11.396;2024-01-06T06:47:59;1999.90;;;999.90;;
73296;SDS011;61524;50.938;11.396;2024-01-06T06:50:24;1999.90;;;999.90;;
73296;SDS011;61524;50.938;11.396;2024-01-06T06:52:49;1999.90;;;999.90;;
73296;SDS011;61524;50.938;11.396;2024-01-06T06:55:15;1999.90;;;999.90;;
73296;SDS011;61524;50.938;11.396;2024-01-06T06:57:40;1999.90;;;999.90;;
73296;SDS011;61524;50.938;11.396;2024-01-06T07:00:06;1999.90;;;999.90;;
73296;SDS011;61524;50.938;11.396;2024-01-06T07:02:32;1999.90;;;999.90;;
73296;SDS011;61524;50.938;11.396;2024-01-06T07:04:57;1999.90;;;999.90;;
73296;SDS011;61524;50.938;11.396;2024-01-06T07:07:23;1999.90;;;999.90;;
73296;SDS011;61524;50.938;11.396;2024-01-06T07:09:48;1999.90;;;999.90;;
73296;SDS011;61524;50.938;11.396;2024-01-06T07:12:13;1999.90;;;999.90;;
73296;SDS011;61524;50.938;11.396;2024-01-06T07:14:39;1999.90;;;999.90;;
73296;SDS011;61524;50.938;11.396;2024-01-06T07:17:04;1999.90;;;999.90;;
73296;SDS011;61524;50.938;11.396;2024-01-06T07:19:31;1999.90;;;999.90;;
73296;SDS011;61524;50.938;11.396;2024-01-06T07:21:56;1999.90;;;999.90;;
73296;SDS011;61524;50.938;11.396;2024-01-06T07:24:22;1999.90;;;999.90;;
73296;SDS011;61524;50.938;11.396;2024-01-06T07:26:47;1999.90;;;999.90;;
73296;SDS011;61524;50.938;11.396;2024-01-06T07:29:12;1999.90;;;999.90;;
73296;SDS011;61524;50.938;11.396;2024-01-06T07:31:38;1999.90;;;999.90;;
73296;SDS011;61524;50.938;11.396;2024-01-06T07:34:03;1999.90;;;999.90;;
73296;SDS011;61524;50.938;11.396;2024-01-06T07:36:28;1999.90;;;999.90;;
73296;SDS011;61524;50.938;11.396;2024-01-06T07:38:53;1999.90;;;999.90;;
73296;SDS011;61524;50.938;11.396;2024-01-06T07:41:19;1999.90;;;999.90;;
73296;SDS011;61524;50.938;11.396;2024-01-06T07:43:45;1999.90;;;999.90;;
73296;SDS011;61524;50.938;11.396;2024-01-06T07:46:10;1999.90;;;999.90;;
73296;SDS011;61524;50.938;11.396;2024-01-06T07:48:35;1999.90;;;999.90;;
73296;SDS011;61524;50.938;11.396;2024-01-06T07:51:01;1999.90;;;999.90;;
73296;SDS011;61524;50.938;11.396;2024-01-06T07:53:26;1999.90;;;999.90;;
73296;SDS011;61524;50.938;11.396;2024-01-06T07:55:51;1999.90;;;999.90;;
73296;SDS011;61524;50.938;11.396;2024-01-06T07:58:17;1999.90;;;999.90;;
73296;SDS011;61524;50.938;11.396;2024-01-06T08:00:42;1999.90;;;999.90;;
73296;SDS011;61524;50.938;11.396;2024-01-06T08:03:07;1999.90;;;999.90;;
73296;SDS011;61524;50.938;11.396;2024-01-06T08:05:33;1999.90;;;999.90;;
73296;SDS011;61524;50.938;11.396;2024-01-06T08:07:58;1999.90;;;999.90;;
73296;SDS011;61524;50.938;11.396;2024-01-06T08:10:23;1999.90;;;999.90;;
73296;SDS011;61524;50.938;11.396;2024-01-06T08:12:49;1999.90;;;999.90;;
73296;SDS011;61524;50.938;11.396;2024-01-06T08:15:14;1999.90;;;999.90;;
73296;SDS011;61524;50.938;11.396;2024-01-06T08:17:39;1999.90;;;999.90;;
73296;SDS011;61524;50.938;11.396;2024-01-06T08:20:06;1999.90;;;999.90;;
73296;SDS011;61524;50.938;11.396;2024-01-06T08:22:31;1999.90;;;999.90;;
73296;SDS011;61524;50.938;11.396;2024-01-06T08:24:57;1999.90;;;999.90;;
73296;SDS011;61524;50.938;11.396;2024-01-06T08:27:22;1999.90;;;999.90;;
73296;SDS011;61524;50.938;11.396;2024-01-06T08:29:48;1999.90;;;999.90;;
73296;SDS011;61524;50.938;11.396;2024-01-06T08:32:14;1999.90;;;999.90;;
73296;SDS011;61524;50.938;11.396;2024-01-06T08:34:40;1999.90;;;999.90;;
73296;SDS011;61524;50.938;11.396;2024-01-06T08:37:05;1999.90;;;999.90;;
73296;SDS011;61524;50.938;11.396;2024-01-06T08:39:30;1999.90;;;999.90;;
73296;SDS011;61524;50.938;11.396;2024-01-06T08:41:55;1999.90;;;999.90;;
73296;SDS011;61524;50.938;11.396;2024-01-06T08:44:21;1999.90;;;999.90;;
73296;SDS011;61524;50.938;11.396;2024-01-06T08:46:46;1999.90;;;999.90;;
73296;SDS011;61524;50.938;11.396;2024-01-06T08:49:11;1999.90;;;999.90;;
73296;SDS011;61524;50.938;11.396;2024-01-06T08:51:37;1999.90;;;999.90;;
73296;SDS011;61524;50.938;11.396;2024-01-06T08:54:02;1999.90;;;999.90;;
73296;SDS011;61524;50.938;11.396;2024-01-06T08:56:30;1999.90;;;999.90;;
73296;SDS011;61524;50.938;11.396;2024-01-06T08:58:55;1999.90;;;999.90;;
73296;SDS011;61524;50.938;11.396;2024-01-06T09:01:22;1999.90;;;999.90;;
73296;SDS011;61524;50.938;11.396;2024-01-06T09:03:47;1999.90;;;999.90;;
73296;SDS011;61524;50.938;11.396;2024-01-06T09:06:12;1999.90;;;999.90;;
73296;SDS011;61524;50.938;11.396;2024-01-06T09:08:38;1999.90;;;999.90;;
73296;SDS011;61524;50.938;11.396;2024-01-06T09:11:03;1999.90;;;999.90;;
73296;SDS011;61524;50.938;11.396;2024-01-06T09:13:29;1999.90;;;999.90;;
73296;SDS011;61524;50.938;11.396;2024-01-06T09:15:54;1999.90;;;999.90;;
73296;SDS011;61524;50.938;11.396;2024-01-06T09:18:19;1999.90;;;999.90;;
73296;SDS011;61524;50.938;11.396;2024-01-06T09:20:45;1999.90;;;999.90;;
73296;SDS011;61524;50.938;11.396;2024-01-06T09:23:12;1999.90;;;999.90;;
73296;SDS011;61524;50.938;11.396;2024-01-06T09:25:38;1999.90;;;999.90;;
73296;SDS011;61524;50.938;11.396;2024-01-06T09:28:05;1999.90;;;999.90;;
73296;SDS011;61524;50.938;11.396;2024-01-06T09:30:30;1999.90;;;999.90;;
73296;SDS011;61524;50.938;11.396;2024-01-06T09:32:55;1999.90;;;999.90;;
73296;SDS011;61524;50.938;11.396;2024-01-06T09:35:21;1999.90;;;999.90;;
73296;SDS011;61524;50.938;11.396;2024-01-06T09:37:46;1999.90;;;999.90;;
73296;SDS011;61524;50.938;11.396;2024-01-06T09:40:12;1999.90;;;999.90;;
73296;SDS011;61524;50.938;11.396;2024-01-06T09:42:40;1999.90;;;999.90;;
73296;SDS011;61524;50.938;11.396;2024-01-06T09:45:05;1999.90;;;999.90;;
73296;SDS011;61524;50.938;11.396;2024-01-06T09:47:32;1999.90;;;999.90;;
73296;SDS011;61524;50.938;11.396;2024-01-06T09:49:58;1999.90;;;999.90;;
73296;SDS011;61524;50.938;11.396;2024-01-06T09:52:25;1999.90;;;999.90;;
73296;SDS011;61524;50.938;11.396;2024-01-06T09:54:52;1999.90;;;999.90;;
73296;SDS011;61524;50.938;11.396;2024-01-06T09:57:18;1999.90;;;999.90;;
73296;SDS011;61524;50.938;11.396;2024-01-06T09:59:44;1999.90;;;999.90;;
73296;SDS011;61524;50.938;11.396;2024-01-06T10:02:09;1999.90;;;999.90;;
73296;SDS011;61524;50.938;11.396;2024-01-06T10:04:38;1999.90;;;999.90;;
73296;SDS011;61524;50.938;11.396;2024-01-06T10:07:03;1999.90;;;999.90;;
73296;SDS011;61524;50.938;11.396;2024-01-06T10:09:28;1999.90;;;999.90;;
73296;SDS011;61524;50.938;11.396;2024-01-06T10:11:54;34.60;;;32.53;;
73296;SDS011;61524;50.938;11.396;2024-01-06T10:14:20;148.77;;;94.70;;
73296;SDS011;61524;50.938;11.396;2024-01-06T10:16:46;8.68;;;4.78;;
73296;SDS011;61524;50.938;11.396;2024-01-06T10:19:14;5.45;;;3.15;;
73296;SDS011;61524;50.938;11.396;2024-01-06T10:21:39;68.85;;;66.03;;
73296;SDS011;61524;50.938;11.396;2024-01-06T10:24:06;33.42;;;31.70;;
73296;SDS011;61524;50.938;11.396;2024-01-06T10:28:57;20.02;;;18.98;;
73296;SDS011;61524;50.938;11.396;2024-01-06T10:31:24;22.92;;;21.75;;
73296;SDS011;61524;50.938;11.396;2024-01-06T10:33:49;10.02;;;9.23;;
73296;SDS011;61524;50.938;11.396;2024-01-06T10:36:15;10.13;;;9.27;;
73296;SDS011;61524;50.938;11.396;2024-01-06T10:38:41;13.55;;;12.38;;
73296;SDS011;61524;50.938;11.396;2024-01-06T10:41:06;20.98;;;19.88;;
73296;SDS011;61524;50.938;11.396;2024-01-06T10:43:35;16.70;;;15.88;;
73296;SDS011;61524;50.938;11.396;2024-01-06T10:46:03;13.75;;;12.85;;
73296;SDS011;61524;50.938;11.396;2024-01-06T10:48:33;12.27;;;11.43;;
73296;SDS011;61524;50.938;11.396;2024-01-06T10:50:59;29.73;;;28.38;;
73296;SDS011;61524;50.938;11.396;2024-01-06T10:53:26;5.80;;;2.10;;
73296;SDS011;61524;50.938;11.396;2024-01-06T10:55:51;6.13;;;2.60;;
73296;SDS011;61524;50.938;11.396;2024-01-06T10:58:17;4.50;;;2.95;;
73296;SDS011;61524;50.938;11.396;2024-01-06T11:00:43;6.68;;;3.65;;
73296;SDS011;61524;50.938;11.396;2024-01-06T11:03:09;5.87;;;2.57;;
73296;SDS011;61524;50.938;11.396;2024-01-06T11:05:34;4.72;;;2.90;;
73296;SDS011;61524;50.938;11.396;2024-01-06T11:08:00;4.43;;;2.80;;
73296;SDS011;61524;50.938;11.396;2024-01-06T11:10:26;5.68;;;5.05;;
73296;SDS011;61524;50.938;11.396;2024-01-06T11:13:13;4.90;;;2.78;;
73296;SDS011;61524;50.938;11.396;2024-01-06T11:15:57;4.70;;;2.72;;
73296;SDS011;61524;50.938;11.396;2024-01-06T11:18:33;7.50;;;2.80;;
73296;SDS011;61524;50.938;11.396;2024-01-06T11:23:42;5.22;;;3.50;;
73296;SDS011;61524;50.938;11.396;2024-01-06T11:26:07;5.22;;;4.68;;
73296;SDS011;61524;50.938;11.396;2024-01-06T11:28:48;5.20;;;2.67;;
73296;SDS011;61524;50.938;11.396;2024-01-06T11:31:16;5.05;;;2.80;;
73296;SDS011;61524;50.938;11.396;2024-01-06T11:33:45;5.60;;;2.83;;
73296;SDS011;61524;50.938;11.396;2024-01-06T11:36:14;5.63;;;3.13;;
73296;SDS011;61524;50.938;11.396;2024-01-06T11:41:07;40.37;;;34.67;;
73296;SDS011;61524;50.938;11.396;2024-01-06T11:43:36;4.53;;;3.25;;
73296;SDS011;61524;50.938;11.396;2024-01-06T11:46:02;7.10;;;3.00;;
73296;SDS011;61524;50.938;11.396;2024-01-06T11:48:31;5.70;;;2.83;;
73296;SDS011;61524;50.938;11.396;2024-01-06T11:50:57;6.18;;;2.95;;
73296;SDS011;61524;50.938;11.396;2024-01-06T11:53:23;5.22;;;2.78;;
73296;SDS011;61524;50.938;11.396;2024-01-06T11:55:51;10.40;;;8.60;;
73296;SDS011;61524;50.938;11.396;2024-01-06T11:58:17;7.35;;;2.92;;
73296;SDS011;61524;50.938;11.396;2024-01-06T12:00:42;6.93;;;3.47;;
73296;SDS011;61524;50.938;11.396;2024-01-06T12:03:07;6.63;;;3.13;;
73296;SDS011;61524;50.938;11.396;2024-01-06T12:05:33;9.43;;;3.20;;
73296;SDS011;61524;50.938;11.396;2024-01-06T12:07:59;5.32;;;3.10;;
73296;SDS011;61524;50.938;11.396;2024-01-06T12:10:25;6.82;;;2.75;;
73296;SDS011;61524;50.938;11.396;2024-01-06T12:12:57;22.00;;;19.85;;
73296;SDS011;61524;50.938;11.396;2024-01-06T12:15:26;31.73;;;9.95;;
73296;SDS011;61524;50.938;11.396;2024-01-06T12:17:51;149.90;;;68.22;;
73296;SDS011;61524;50.938;11.396;2024-01-06T12:20:17;80.82;;;19.05;;
73296;SDS011;61524;50.938;11.396;2024-01-06T12:22:42;8.50;;;4.05;;
73296;SDS011;61524;50.938;11.396;2024-01-06T12:25:09;6.10;;;4.18;;
73296;SDS011;61524;50.938;11.396;2024-01-06T12:27:34;6.47;;;4.55;;
73296;SDS011;61524;50.938;11.396;2024-01-06T12:29:59;6.47;;;4.03;;
73296;SDS011;61524;50.938;11.396;2024-01-06T12:32:25;6.60;;;4.70;;
73296;SDS011;61524;50.938;11.396;2024-01-06T12:34:50;7.18;;;4.25;;
73296;SDS011;61524;50.938;11.396;2024-01-06T12:37:16;9.95;;;5.00;;
73296;SDS011;61524;50.938;11.396;2024-01-06T12:39:42;5.63;;;4.28;;
73296;SDS011;61524;50.938;11.396;2024-01-06T12:42:07;4.82;;;2.67;;
73296;SDS011;61524;50.938;11.396;2024-01-06T12:44:33;6.53;;;3.67;;
73296;SDS011;61524;50.938;11.396;2024-01-06T12:47:02;7.47;;;3.97;;
73296;SDS011;61524;50.938;11.396;2024-01-06T12:49:27;5.22;;;4.03;;
73296;SDS011;61524;50.938;11.396;2024-01-06T12:51:52;5.10;;;3.90;;
73296;SDS011;61524;50.938;11.396;2024-01-06T12:54:18;13.95;;;12.90;;
73296;SDS011;61524;50.938;11.396;2024-01-06T12:56:43;6.33;;;3.80;;
73296;SDS011;61524;50.938;11.396;2024-01-06T12:59:09;6.28;;;3.65;;
73296;SDS011;61524;50.938;11.396;2024-01-06T13:01:34;7.03;;;4.18;;
73296;SDS011;61524;50.938;11.396;2024-01-06T13:03:59;6.13;;;4.10;;
73296;SDS011;61524;50.938;11.396;2024-01-06T13:06:26;10.95;;;4.00;;
73296;SDS011;61524;50.938;11.396;2024-01-06T13:08:51;8.40;;;4.50;;
73296;SDS011;61524;50.938;11.396;2024-01-06T13:11:17;6.97;;;4.28;;
73296;SDS011;61524;50.938;11.396;2024-01-06T13:13:43;53.20;;;16.50;;
73296;SDS011;61524;50.938;11.396;2024-01-06T13:16:08;5.82;;;3.67;;
73296;SDS011;61524;50.938;11.396;2024-01-06T13:18:34;5.95;;;3.90;;
73296;SDS011;61524;50.938;11.396;2024-01-06T13:21:00;5.68;;;4.28;;
73296;SDS011;61524;50.938;11.396;2024-01-06T13:23:26;9.43;;;4.97;;
73296;SDS011;61524;50.938;11.396;2024-01-06T13:25:52;7.85;;;5.22;;
73296;SDS011;61524;50.938;11.396;2024-01-06T13:28:17;11.43;;;5.43;;
73296;SDS011;61524;50.938;11.396;2024-01-06T13:30:42;7.87;;;4.43;;
73296;SDS011;61524;50.938;11.396;2024-01-06T13:33:07;8.70;;;4.32;;
73296;SDS011;61524;50.938;11.396;2024-01-06T13:35:34;79.25;;;22.73;;
73296;SDS011;61524;50.938;11.396;2024-01-06T13:38:01;8.85;;;4.90;;
73296;SDS011;61524;50.938;11.396;2024-01-06T13:40:29;8.30;;;5.30;;
73296;SDS011;61524;50.938;11.396;2024-01-06T13:42:54;7.65;;;4.05;;
73296;SDS011;61524;50.938;11.396;2024-01-06T13:45:20;7.47;;;4.43;;